Flight Track Log - Related Links

Times and Time Zones

All times are in EDT time to prevent confusion due to time zone crossing. See the UAL4498 flight status page for this flight to view local times or setup timezone preferences in your user account.

Time Position Orientation Groundspeed Altitude Reporting Facility
EDT Latitude Longitude Course Direction KTS MPH feet Rate Location/Type
Thu 08:23:00 PM 39.3526 -94.1876 80° East  Level FlightAware Approximate
Thu 08:24:00 PM 39.3712 -94.0427 82° East  Level FlightAware Approximate
Thu 08:25:00 PM 39.3862 -93.8971 84° East  Level FlightAware Approximate
Thu 08:26:00 PM 39.3974 -93.7509 84° East  Level FlightAware Approximate
Thu 08:27:00 PM 39.4145 -93.6057 80° East  Level FlightAware Approximate
Thu 08:28:00 PM 39.4333 -93.4607 80° East  Level FlightAware Approximate
Thu 08:29:00 PM 39.4519 -93.3156 81° East  Level FlightAware Approximate
Thu 08:30:00 PM 39.4703 -93.1705 81° East  Level FlightAware Approximate
Thu 08:31:00 PM 39.4890 -93.0254 80° East  Level FlightAware Approximate
Thu 08:32:00 PM 39.5089 -92.8805 80° East  Level FlightAware Approximate
Thu 08:33:00 PM 39.5285 -92.7355 80° East  Level FlightAware Approximate
Thu 08:34:00 PM 39.5445 -92.5898 82° East  Level FlightAware Approximate
Thu 08:35:00 PM 39.5592 -92.4438 83° East  Level FlightAware Approximate
Thu 08:36:00 PM 39.5737 -92.2977 83° East  Level FlightAware Approximate
Thu 08:37:00 PM 39.5894 -92.1518 81° East  Level FlightAware Approximate
Thu 08:38:00 PM 39.6071 -92.0062 81° East  Level FlightAware Approximate
Thu 08:39:00 PM 39.6240 -91.8604 81° East  Level FlightAware Approximate
Thu 08:40:00 PM 39.6408 -91.7146 81° East  Level FlightAware Approximate
Thu 08:41:00 PM 39.6554 -91.5684 84° East  Level FlightAware Approximate
Thu 08:42:00 PM 39.6679 -91.4218 82° East  Level FlightAware Approximate
Thu 08:43:00 PM 39.6828 -91.2755 82° East  Level FlightAware Approximate
Thu 08:44:00 PM 39.6975 -91.1292 83° East  Level FlightAware Approximate
Thu 08:45:00 PM 39.7120 -90.9828 83° East  Level FlightAware Approximate
Thu 08:46:00 PM 39.7264 -90.8364 83° East  Level FlightAware Approximate
Thu 08:47:00 PM 39.7406 -90.6899 83° East  Level FlightAware Approximate
Thu 08:48:00 PM 39.7545 -90.5433 83° East  Level FlightAware Approximate
Thu 08:49:00 PM 39.7683 -90.3967 83° East  Level FlightAware Approximate
Thu 08:50:00 PM 39.7820 -90.2500 83° East  Level FlightAware Approximate
Thu 08:51:00 PM 39.7954 -90.1033 83° East  Level FlightAware Approximate
Thu 08:52:00 PM 39.8087 -89.9565 83° East  Level FlightAware Approximate
Thu 08:53:00 PM 39.8215 -89.8096 84° East  Level FlightAware Approximate
Thu 08:54:00 PM 39.8334 -89.6626 90° East  Level FlightAware Approximate
Thu 08:55:00 PM 39.8342 -89.5147 90° East  Level FlightAware Approximate
Thu 08:56:00 PM 39.8349 -89.3668 90° East  Level FlightAware Approximate
Thu 08:57:00 PM 39.8354 -89.2189 90° East  Level FlightAware Approximate
Thu 08:58:00 PM 39.8357 -89.0711 90° East  Level FlightAware Approximate
Thu 08:59:00 PM 39.8358 -88.9232 90° East  Level FlightAware Approximate
Thu 09:00:00 PM 39.8358 -88.7753 90° East  Level FlightAware Approximate
Thu 09:01:00 PM 39.8355 -88.6274 90° East  Level FlightAware Approximate
Thu 09:02:00 PM 39.8351 -88.4795 90° East  Level FlightAware Approximate
Thu 09:03:00 PM 39.8345 -88.3317 90° East  Level FlightAware Approximate
Thu 09:04:00 PM 39.8336 -88.1838 90° East  Level FlightAware Approximate
Thu 09:05:00 PM 39.8321 -88.0359 91° East  Level FlightAware Approximate
Thu 09:06:00 PM 39.8300 -87.8881 91° East  Level FlightAware Approximate
Thu 09:07:00 PM 39.8278 -87.7403 91° East  Level FlightAware Approximate
Thu 09:08:00 PM 39.8254 -87.5925 91° East  Level FlightAware Approximate
Thu 09:09:00 PM 39.8228 -87.4446 91° East  Level FlightAware Approximate
Thu 09:10:00 PM 39.8200 -87.2969 91° East  Level FlightAware Approximate
Thu 09:11:00 PM 39.8170 -87.1491 91° East  Level FlightAware Approximate
Thu 09:12:00 PM 39.8142 -87.0013 91° East  Level FlightAware Approximate
Thu 09:13:00 PM 39.8112 -86.8535 91° East  Level FlightAware Approximate
Thu 09:14:00 PM 39.8080 -86.7057 92° East  Level FlightAware Approximate
Thu 09:15:00 PM 39.8046 -86.5580 92° East  Level FlightAware Approximate
Thu 09:16:00 PM 39.8011 -86.4102 92° East  Level FlightAware Approximate
Thu 09:17:00 PM 39.8212 -86.2662 75° East  Level FlightAware Approximate
Thu 09:18:00 PM 39.8511 -86.1235 75° East  Level FlightAware Approximate
Thu 09:19:00 PM 39.8809 -85.9807 75° East  Level FlightAware Approximate
Thu 09:20:00 PM 39.9105 -85.8378 75° East  Level FlightAware Approximate
Thu 09:21:00 PM 39.9399 -85.6948 75° East  Level FlightAware Approximate
Thu 09:22:00 PM 39.9691 -85.5517 75° East  Level FlightAware Approximate
Thu 09:23:00 PM 39.9982 -85.4084 75° East  Level FlightAware Approximate
Thu 09:24:00 PM 40.0277 -85.2652 74° East  Level FlightAware Approximate
Thu 09:25:00 PM 40.0581 -85.1223 74° East  Level FlightAware Approximate
Thu 09:26:00 PM 40.0883 -84.9793 75° East  Level FlightAware Approximate
Thu 09:27:00 PM 40.1184 -84.8362 75° East  Level FlightAware Approximate
Thu 09:28:00 PM 40.1483 -84.6929 75° East  Level FlightAware Approximate
Thu 09:29:00 PM 40.1780 -84.5495 75° East  Level FlightAware Approximate
Thu 09:30:00 PM 40.2076 -84.4059 75° East  Level FlightAware Approximate
Thu 09:31:00 PM 40.2369 -84.2623 75° East  Level FlightAware Approximate
Thu 09:32:00 PM 40.2661 -84.1185 75° East  Level FlightAware Approximate
Thu 09:33:00 PM 40.3073 -83.9814 59° Northeast  Level FlightAware Approximate
Thu 09:34:00 PM 40.3661 -83.8538 59° Northeast  Level FlightAware Approximate
Thu 09:35:00 PM 40.4246 -83.7261 59° Northeast  Level FlightAware Approximate
Thu 09:36:00 PM 40.4831 -83.5982 59° Northeast  Level FlightAware Approximate
Thu 09:37:00 PM 40.5414 -83.4700 59° Northeast  Level FlightAware Approximate
Thu 09:38:00 PM 40.5995 -83.3416 59° Northeast  Level FlightAware Approximate
Thu 09:39:00 PM 40.6574 -83.2129 59° Northeast  Level FlightAware Approximate
Thu 09:40:00 PM 40.7150 -83.0838 59° Northeast  Level FlightAware Approximate
Thu 09:41:00 PM 40.7724 -82.9545 60° Northeast  Level FlightAware Approximate
Thu 09:42:00 PM 40.8297 -82.8250 60° Northeast  Level FlightAware Approximate
Thu 09:43:00 PM 40.8868 -82.6953 60° Northeast  Level FlightAware Approximate
Thu 09:44:00 PM 40.9438 -82.5653 60° Northeast  Level FlightAware Approximate
Thu 09:45:00 PM 41.0007 -82.4351 60° Northeast  Level FlightAware Approximate
Thu 09:46:00 PM 41.0574 -82.3047 60° Northeast  Level FlightAware Approximate
Thu 09:47:00 PM 41.1140 -82.1740 60° Northeast  Level FlightAware Approximate
Thu 09:48:00 PM 41.1704 -82.0432 60° Northeast  Level FlightAware Approximate
Thu 09:49:00 PM 41.2266 -81.9121 60° Northeast  Level FlightAware Approximate
Thu 09:50:00 PM 41.2827 -81.7808 60° Northeast  Level FlightAware Approximate
Thu 09:51:00 PM 41.3387 -81.6492 60° Northeast  Level FlightAware Approximate
Thu 09:52:00 PM 41.3957 -81.5184 59° Northeast  Level FlightAware Approximate
Thu 09:53:00 PM 41.4537 -81.3882 59° Northeast  Level FlightAware Approximate
Thu 09:54:00 PM 41.5115 -81.2577 59° Northeast  Level FlightAware Approximate
Thu 09:55:00 PM 41.5692 -81.1270 59° Northeast  Level FlightAware Approximate
Thu 09:56:00 PM 41.6267 -80.9961 60° Northeast  Level FlightAware Approximate
Thu 09:57:00 PM 41.6841 -80.8649 61° Northeast  Level FlightAware Approximate
Thu 09:58:00 PM 41.7390 -80.7318 61° Northeast  Level FlightAware Approximate
Thu 09:59:00 PM 41.7938 -80.5985 61° Northeast  Level FlightAware Approximate
Thu 10:00:00 PM 41.7863 -80.4496 98° East  Level FlightAware Approximate
Thu 10:01:00 PM 41.7705 -80.2988 98° East  Level FlightAware Approximate
Thu 10:02:00 PM 41.7547 -80.1480 98° East  Level FlightAware Approximate
Thu 10:03:00 PM 41.7386 -79.9974 98° East  Level FlightAware Approximate
Thu 10:04:00 PM 41.7223 -79.8468 98° East  Level FlightAware Approximate
Thu 10:05:00 PM 41.7058 -79.6963 98° East  Level FlightAware Approximate
Thu 10:06:00 PM 41.6891 -79.5458 98° East  Level FlightAware Approximate
Thu 10:07:00 PM 41.6722 -79.3955 98° East  Level FlightAware Approximate
Thu 10:08:00 PM 41.6552 -79.2452 99° East  Level FlightAware Approximate
Thu 10:09:00 PM 41.6384 -79.0949 98° East  Level FlightAware Approximate
Thu 10:10:00 PM 41.6216 -78.9447 98° East  Level FlightAware Approximate
Thu 10:11:00 PM 41.6046 -78.7945 99° East  Level FlightAware Approximate
Thu 10:12:00 PM 41.5874 -78.6444 99° East  Level FlightAware Approximate
Thu 10:13:00 PM 41.5700 -78.4944 99° East  Level FlightAware Approximate
Thu 10:14:00 PM 41.5524 -78.3445 99° East  Level FlightAware Approximate
Thu 10:15:00 PM 41.5347 -78.1946 99° East  Level FlightAware Approximate
Thu 10:16:00 PM 41.5122 -78.0460 102° East  Level FlightAware Approximate
Thu 10:17:00 PM 41.4919 -77.8969 99° East  Level FlightAware Approximate
Thu 10:18:00 PM 41.4742 -77.7471 99° East  Level FlightAware Approximate
Thu 10:19:00 PM 41.4550 -77.5978 100° East  Level FlightAware Approximate
Thu 10:20:00 PM 41.4346 -77.4488 100° East  Level FlightAware Approximate
Thu 10:21:00 PM 41.4140 -77.2999 100° East  Level FlightAware Approximate
Thu 10:22:00 PM 41.3919 -77.1514 102° East  Level FlightAware Approximate
Thu 10:23:00 PM 41.3689 -77.0032 101° East  Level FlightAware Approximate
Thu 10:24:00 PM 41.3467 -76.8548 101° East  Level FlightAware Approximate
Thu 10:25:00 PM 41.3215 -76.7074 105° East  Level FlightAware Approximate
Thu 10:26:00 PM 41.2794 -76.5674 108° East  Level FlightAware Approximate
Thu 10:27:00 PM 41.2436 -76.4240 108° East  Level FlightAware Approximate
Thu 10:28:00 PM 41.2066 -76.2813 111° Southeast  Level FlightAware Approximate
Thu 10:29:00 PM 41.1581 -76.1490 108° East  Level FlightAware Approximate
Thu 10:30:00 PM 41.1259 -76.0052 109° East  Level FlightAware Approximate
Thu 10:31:00 PM 41.0880 -75.8631 109° East  Level FlightAware Approximate
Thu 10:32:00 PM 41.0491 -75.7216 111° Southeast  Level FlightAware Approximate
Thu 10:33:00 PM 41.0054 -75.5828 114° Southeast  Level FlightAware Approximate
Thu 10:34:00 PM 40.9693 -75.4413 114° Southeast  Level FlightAware Approximate
Thu 10:35:00 PM 40.9274 -75.3101 118° Southeast  Level FlightAware Approximate
Thu 10:36:00 PM 40.8953 -75.1682 112° Southeast  Level FlightAware Approximate
Thu 10:37:00 PM 40.8526 -75.0290 112° Southeast  Level FlightAware Approximate
Thu 10:38:00 PM 40.8167 -74.8886 90° East  Level FlightAware Approximate
Thu 10:39:00 PM 40.7939 -74.7422 108° East  Level FlightAware Approximate
Thu 10:40:00 PM 40.7595 -74.6001 101° East  Level FlightAware Approximate
Thu 10:41:00 PM 40.7402 -74.4540 114° Southeast  Level FlightAware Approximate
Thu 10:42:00 PM 40.7076 -74.3121 102° East  Level FlightAware Approximate
Thu 10:43:00 PM 40.6833 -74.1667 102° East  Level FlightAware Approximate
Thu 10:44:00 PM 40.6925 -74.1687 102° East  Level Estimated
Thu 10:45:00 PM 40.6925 -74.1687 102° East  Level Estimated
Thu 10:46:00 PM 40.6925 -74.1687 102° East  Level Estimated

Login

Don't have an account? Register now (free) for customized features, flight alerts, and more!